Time;durP1;ratioP1;P1;durP2;ratioP2;P2;SDS_P1;SDS_P2;PMS_P1;PMS_P2;Temp;Humidity;BMP_temperature;BMP_pressure;BME280_temperature;BME280_humidity;BME280_pressure;Samples;Min_cycle;Max_cycle;Signal;HPM_P1;HPM_P2
2023/07/19 00:01:42;;;;;;;6.10;3.80;;;24.20;58.20;;;;;;4997375;28;20233;-82
2023/07/19 00:04:10;;;;;;;3.80;3.50;;;24.20;58.20;;;;;;4982360;28;20192;-82
2023/07/19 00:06:37;;;;;;;3.67;3.33;;;24.20;58.30;;;;;;4998059;28;20591;-82
2023/07/19 00:09:04;;;;;;;3.80;3.40;;;24.20;58.30;;;;;;4998159;28;20255;-82
2023/07/19 00:11:31;;;;;;;4.68;3.50;;;24.20;58.20;;;;;;4997646;28;20224;-83
2023/07/19 00:13:59;;;;;;;3.63;3.33;;;24.20;58.20;;;;;;4997978;28;20204;-83
2023/07/19 00:16:27;;;;;;;3.70;3.20;;;24.20;58.20;;;;;;4997724;28;20204;-83
2023/07/19 00:18:54;;;;;;;4.03;3.25;;;24.20;58.20;;;;;;4997536;28;20260;-83
2023/07/19 00:21:22;;;;;;;3.92;3.58;;;24.20;58.20;;;;;;4983112;28;20323;-83
2023/07/19 00:23:49;;;;;;;4.82;3.38;;;24.20;58.10;;;;;;5001074;28;20571;-83
2023/07/19 00:26:16;;;;;;;4.78;3.30;;;24.10;58.10;;;;;;5000821;28;20193;-83
2023/07/19 00:28:43;;;;;;;4.30;3.40;;;24.10;58.10;;;;;;5002453;28;20197;-83
2023/07/19 00:31:12;;;;;;;3.70;3.40;;;24.10;58.20;;;;;;4985787;28;20311;-83
2023/07/19 00:33:39;;;;;;;4.18;3.70;;;24.10;58.20;;;;;;5000788;28;20201;-83
2023/07/19 00:36:06;;;;;;;4.10;3.67;;;24.10;58.10;;;;;;4986160;28;20211;-83
2023/07/19 00:38:34;;;;;;;3.60;3.30;;;24.10;58.30;;;;;;5003163;28;20201;-83
2023/07/19 00:41:01;;;;;;;3.72;3.38;;;24.10;58.10;;;;;;5002654;28;20240;-83
2023/07/19 00:43:28;;;;;;;3.65;3.28;;;24.00;58.10;;;;;;5004123;28;20197;-83
2023/07/19 00:45:55;;;;;;;3.78;3.40;;;24.00;58.00;;;;;;5003693;28;20203;-83
2023/07/19 00:48:23;;;;;;;4.47;3.50;;;24.00;58.00;;;;;;5003366;28;20239;-83
2023/07/19 00:50:51;;;;;;;4.10;3.40;;;24.10;58.10;;;;;;5003466;28;20227;-83
2023/07/19 00:53:18;;;;;;;3.88;3.45;;;24.00;58.10;;;;;;4987997;28;20228;-83
2023/07/19 00:55:46;;;;;;;4.93;3.83;;;24.00;58.00;;;;;;5015047;28;20223;-83
2023/07/19 00:58:13;;;;;;;4.05;3.60;;;24.00;58.10;;;;;;5013460;28;20246;-83
2023/07/19 01:00:40;;;;;;;3.63;3.33;;;24.00;57.90;;;;;;5007419;28;20710;-83
2023/07/19 01:03:07;;;;;;;3.97;3.60;;;24.00;58.00;;;;;;5006275;28;20659;-83
2023/07/19 01:05:36;;;;;;;4.43;3.60;;;24.00;58.20;;;;;;5005830;28;20204;-82
2023/07/19 01:08:18;;;;;;;4.07;3.63;;;24.00;58.10;;;;;;5005508;28;20220;-82
2023/07/19 01:10:45;;;;;;;5.15;3.33;;;24.00;58.20;;;;;;5005700;28;20220;-82
2023/07/19 01:13:13;;;;;;;3.80;3.50;;;24.00;58.20;;;;;;5005196;28;20196;-82
2023/07/19 01:15:41;;;;;;;4.95;3.63;;;23.90;58.10;;;;;;5004716;28;20193;-82
2023/07/19 01:18:09;;;;;;;3.55;3.25;;;23.90;58.10;;;;;;5004664;28;20205;-82
2023/07/19 01:20:37;;;;;;;4.57;3.97;;;23.90;58.10;;;;;;5003950;28;20256;-82
2023/07/19 01:23:06;;;;;;;4.45;4.03;;;23.90;58.10;;;;;;5004461;28;20234;-82
2023/07/19 01:25:33;;;;;;;4.35;3.95;;;23.90;58.20;;;;;;4988153;28;20192;-83
2023/07/19 01:28:00;;;;;;;3.83;3.53;;;23.90;58.20;;;;;;4985671;28;20248;-83
2023/07/19 01:30:27;;;;;;;4.32;3.92;;;23.90;58.80;;;;;;5001163;28;20235;-83
2023/07/19 01:32:54;;;;;;;3.78;3.30;;;23.90;58.30;;;;;;5001154;28;20572;-83
2023/07/19 01:35:22;;;;;;;4.75;3.83;;;23.80;58.20;;;;;;5002263;28;20203;-83
2023/07/19 01:37:49;;;;;;;4.10;3.50;;;23.90;58.30;;;;;;5002407;28;20201;-83
2023/07/19 01:40:17;;;;;;;3.65;3.35;;;23.80;58.20;;;;;;5003197;28;20220;-83
2023/07/19 01:42:45;;;;;;;5.72;4.10;;;23.90;58.30;;;;;;5003860;28;20243;-83
2023/07/19 01:45:12;;;;;;;3.88;3.53;;;23.90;58.40;;;;;;5005643;28;20201;-83
2023/07/19 01:47:39;;;;;;;4.03;3.63;;;23.90;58.90;;;;;;5022746;28;20205;-83
2023/07/19 01:50:07;;;;;;;4.85;3.88;;;23.80;58.20;;;;;;5005886;28;20212;-84
2023/07/19 01:52:34;;;;;;;4.65;3.67;;;23.80;58.20;;;;;;5002537;28;20203;-83
2023/07/19 01:55:01;;;;;;;4.40;3.78;;;23.80;58.20;;;;;;5000129;28;20254;-83
2023/07/19 01:57:29;;;;;;;5.00;3.80;;;23.90;58.30;;;;;;5000819;28;20200;-83
2023/07/19 01:59:57;;;;;;;4.40;3.70;;;23.80;58.10;;;;;;5000867;28;20193;-83
2023/07/19 02:02:24;;;;;;;4.43;3.42;;;23.80;58.20;;;;;;4984750;28;20224;-83
2023/07/19 02:04:51;;;;;;;4.47;4.07;;;23.90;58.30;;;;;;4984564;28;20201;-83
2023/07/19 02:07:19;;;;;;;4.22;3.78;;;23.80;58.30;;;;;;5001553;28;20217;-83
2023/07/19 02:09:46;;;;;;;4.38;3.97;;;23.80;58.30;;;;;;5003000;28;20197;-83
2023/07/19 02:12:13;;;;;;;4.40;4.00;;;23.80;58.30;;;;;;4986599;28;20221;-83
2023/07/19 02:14:42;;;;;;;3.92;3.63;;;23.80;58.30;;;;;;5002928;28;20591;-83
2023/07/19 02:17:10;;;;;;;5.50;3.75;;;23.80;58.30;;;;;;5001860;28;20215;-83
2023/07/19 02:19:39;;;;;;;5.15;4.00;;;23.80;58.30;;;;;;5001256;28;20561;-83
2023/07/19 02:22:06;;;;;;;5.25;3.88;;;23.80;58.30;;;;;;5001593;28;20251;-83
2023/07/19 02:24:34;;;;;;;5.18;3.97;;;23.70;58.30;;;;;;5000127;28;20540;-83
2023/07/19 02:27:01;;;;;;;4.32;3.88;;;23.70;58.20;;;;;;4998946;28;20315;-83
2023/07/19 02:29:29;;;;;;;4.45;4.00;;;23.70;58.30;;;;;;4984213;28;20192;-83
2023/07/19 02:31:58;;;;;;;4.32;3.80;;;23.70;58.80;;;;;;4999372;28;20274;-83
2023/07/19 02:34:25;;;;;;;4.13;3.72;;;23.70;58.30;;;;;;4999153;28;20493;-83
2023/07/19 02:36:51;;;;;;;4.03;3.67;;;23.70;58.30;;;;;;4998498;28;20258;-84
2023/07/19 02:39:20;;;;;;;4.05;3.40;;;23.70;58.30;;;;;;4998337;28;20204;-84
2023/07/19 02:41:48;;;;;;;4.13;3.70;;;23.70;58.20;;;;;;4981897;28;20220;-83
2023/07/19 02:44:14;;;;;;;4.20;3.80;;;23.70;58.30;;;;;;4983229;28;20205;-83
2023/07/19 02:46:41;;;;;;;4.32;3.42;;;23.70;58.30;;;;;;5000100;28;20794;-84
2023/07/19 02:49:10;;;;;;;4.85;3.85;;;23.60;58.30;;;;;;5000085;28;20220;-84
2023/07/19 02:51:37;;;;;;;5.28;4.07;;;23.70;58.30;;;;;;4999364;28;20224;-84
2023/07/19 02:54:04;;;;;;;7.28;4.30;;;23.70;58.40;;;;;;4999165;28;20668;-84
2023/07/19 02:56:31;;;;;;;4.20;3.60;;;23.70;58.70;;;;;;4983081;28;20328;-84
2023/07/19 02:58:59;;;;;;;4.28;3.78;;;23.60;58.20;;;;;;4983226;28;20204;-84
2023/07/19 03:01:26;;;;;;;4.97;3.83;;;23.60;58.20;;;;;;4999397;28;20216;-84
2023/07/19 03:03:54;;;;;;;5.45;4.00;;;23.60;58.20;;;;;;4983182;28;20651;-83
2023/07/19 03:06:22;;;;;;;4.10;3.70;;;23.60;57.90;;;;;;4982700;28;20192;-83
2023/07/19 03:08:49;;;;;;;4.30;3.65;;;23.60;58.20;;;;;;4998833;28;20221;-84
2023/07/19 03:11:16;;;;;;;4.70;3.72;;;23.60;58.30;;;;;;4998636;28;20249;-83
2023/07/19 03:13:43;;;;;;;4.75;4.25;;;23.60;58.50;;;;;;4998759;28;20196;-83
2023/07/19 03:16:11;;;;;;;3.97;3.63;;;23.60;58.40;;;;;;4998975;28;20196;-84
2023/07/19 03:18:38;;;;;;;4.07;3.67;;;23.60;58.20;;;;;;4999353;28;20283;-84
2023/07/19 03:21:05;;;;;;;5.47;3.75;;;23.70;58.30;;;;;;4998862;28;20262;-84
2023/07/19 03:23:34;;;;;;;4.45;4.05;;;23.70;58.10;;;;;;4982103;28;20211;-83
2023/07/19 03:26:01;;;;;;;4.35;3.95;;;23.70;57.90;;;;;;4981477;28;20204;-83
2023/07/19 03:28:29;;;;;;;4.60;4.07;;;23.70;57.90;;;;;;4981940;28;20223;-83
2023/07/19 03:30:57;;;;;;;4.07;3.67;;;23.80;57.70;;;;;;4999072;28;20630;-83
2023/07/19 03:33:25;;;;;;;4.80;4.10;;;23.80;57.80;;;;;;4998416;28;20192;-84
2023/07/19 03:35:53;;;;;;;4.75;3.65;;;23.80;57.60;;;;;;4999693;28;20652;-84
2023/07/19 03:38:20;;;;;;;4.93;3.80;;;23.80;57.60;;;;;;4998712;28;20193;-84
2023/07/19 03:40:51;;;;;;;4.35;3.72;;;23.80;57.50;;;;;;4998952;28;20223;-84
2023/07/19 03:43:18;;;;;;;5.40;4.15;;;23.90;58.30;;;;;;4999035;28;20215;-83
2023/07/19 03:45:45;;;;;;;4.55;4.05;;;23.90;57.40;;;;;;4998999;28;20196;-83
2023/07/19 03:48:13;;;;;;;4.78;3.80;;;23.90;57.20;;;;;;4998755;28;20217;-83
2023/07/19 03:50:40;;;;;;;6.13;3.85;;;23.90;57.10;;;;;;4998237;28;20216;-83
2023/07/19 03:53:10;;;;;;;4.40;3.75;;;23.90;57.10;;;;;;4998445;28;20201;-83
2023/07/19 03:55:37;;;;;;;5.07;3.90;;;23.90;57.10;;;;;;4998736;28;20670;-83
2023/07/19 03:58:07;;;;;;;5.25;3.80;;;23.90;57.20;;;;;;4986766;28;20275;-83
2023/07/19 04:00:35;;;;;;;4.55;4.10;;;23.90;56.90;;;;;;5003083;28;20330;-83
2023/07/19 04:03:02;;;;;;;5.75;3.90;;;23.90;56.90;;;;;;5003842;28;20228;-83
2023/07/19 04:05:30;;;;;;;4.85;3.92;;;23.90;57.00;;;;;;4988101;28;20203;-84
2023/07/19 04:08:01;;;;;;;4.05;3.63;;;24.00;57.10;;;;;;5002982;28;20220;-84
2023/07/19 04:10:30;;;;;;;4.28;3.88;;;24.00;57.00;;;;;;5002689;28;20613;-84
2023/07/19 04:12:57;;;;;;;5.10;3.80;;;23.90;57.40;;;;;;5001894;28;20251;-84
2023/07/19 04:15:26;;;;;;;6.00;4.00;;;24.00;56.90;;;;;;5002034;28;20200;-83
2023/07/19 04:17:53;;;;;;;4.75;4.05;;;24.00;56.70;;;;;;5001376;28;20304;-84
2023/07/19 04:20:22;;;;;;;4.40;3.78;;;24.00;56.70;;;;;;4985165;28;20299;-83
2023/07/19 04:22:49;;;;;;;4.20;3.80;;;24.00;56.80;;;;;;4985495;28;20709;-83
2023/07/19 04:25:17;;;;;;;5.53;4.00;;;24.00;56.80;;;;;;5001665;28;20196;-83
2023/07/19 04:27:44;;;;;;;4.88;3.80;;;24.00;56.80;;;;;;5000632;28;20311;-83
2023/07/19 04:30:13;;;;;;;4.20;3.80;;;24.00;56.80;;;;;;5002509;28;20297;-84
2023/07/19 04:32:42;;;;;;;4.30;3.70;;;24.00;56.70;;;;;;5001560;28;20193;-84
2023/07/19 04:35:09;;;;;;;4.10;3.75;;;24.00;56.70;;;;;;5001509;28;20201;-84
2023/07/19 04:37:38;;;;;;;4.97;4.05;;;24.00;56.80;;;;;;5001562;28;20247;-82
2023/07/19 04:40:08;;;;;;;5.72;3.80;;;24.00;56.70;;;;;;5001052;28;20247;-83
2023/07/19 04:42:35;;;;;;;6.80;4.38;;;24.00;57.30;;;;;;5001227;28;20193;-82
2023/07/19 04:45:03;;;;;;;4.70;4.30;;;23.90;57.60;;;;;;5001350;28;20211;-82
2023/07/19 04:47:33;;;;;;;4.93;4.47;;;23.80;57.90;;;;;;5001498;28;20201;-82
2023/07/19 04:50:01;;;;;;;5.40;4.90;;;23.60;58.40;;;;;;5003665;28;20212;-82
2023/07/19 04:52:28;;;;;;;5.22;4.30;;;23.40;58.90;;;;;;5004503;28;20551;-82
2023/07/19 04:54:56;;;;;;;5.25;3.92;;;23.30;59.80;;;;;;5000756;28;20652;-82
2023/07/19 04:57:24;;;;;;;5.38;4.13;;;23.20;59.80;;;;;;5001715;28;20203;-82
2023/07/19 04:59:51;;;;;;;6.00;4.65;;;23.20;59.60;;;;;;5000804;28;20185;-82
2023/07/19 05:02:18;;;;;;;4.78;4.20;;;23.10;60.20;;;;;;5001855;28;20292;-82
2023/07/19 05:04:45;;;;;;;4.82;4.32;;;23.00;61.00;;;;;;5002420;28;20208;-82
2023/07/19 05:07:14;;;;;;;6.93;4.82;;;23.00;60.70;;;;;;5001988;28;20193;-82
2023/07/19 05:09:43;;;;;;;5.85;4.20;;;23.10;60.50;;;;;;5002676;28;20286;-82
2023/07/19 05:12:11;;;;;;;5.15;4.35;;;23.20;60.40;;;;;;5002183;28;20251;-83
2023/07/19 05:14:38;;;;;;;5.35;4.22;;;23.40;59.50;;;;;;4986744;28;20200;-82
2023/07/19 05:17:06;;;;;;;6.80;4.40;;;23.60;59.20;;;;;;5018624;28;20251;-81
2023/07/19 05:19:33;;;;;;;4.68;3.80;;;23.80;58.50;;;;;;5022869;28;20211;-82
2023/07/19 05:22:00;;;;;;;6.88;4.55;;;24.00;57.90;;;;;;5008163;28;20217;-82
2023/07/19 05:24:28;;;;;;;4.45;4.05;;;24.20;57.50;;;;;;5000466;28;20203;-82
2023/07/19 05:26:56;;;;;;;4.22;3.67;;;24.40;57.10;;;;;;5000394;28;20651;-82
2023/07/19 05:29:23;;;;;;;4.90;4.30;;;24.50;56.70;;;;;;5000472;28;20220;-82
2023/07/19 05:31:50;;;;;;;4.63;4.20;;;24.70;57.20;;;;;;5000659;28;20718;-82
2023/07/19 05:34:18;;;;;;;4.90;4.40;;;24.80;57.00;;;;;;5000664;28;20197;-82
2023/07/19 05:36:44;;;;;;;4.30;3.78;;;24.90;56.20;;;;;;5001153;28;20207;-82
2023/07/19 05:39:11;;;;;;;5.45;4.15;;;25.00;56.00;;;;;;5001498;28;20205;-82
2023/07/19 05:41:40;;;;;;;4.15;3.35;;;25.10;55.80;;;;;;5001883;28;20243;-82
2023/07/19 05:44:07;;;;;;;4.78;3.65;;;25.20;55.60;;;;;;4986885;28;20202;-82
2023/07/19 05:46:36;;;;;;;4.40;4.00;;;25.30;55.10;;;;;;5003133;28;20221;-82
2023/07/19 05:49:03;;;;;;;4.18;3.72;;;25.50;54.80;;;;;;5002907;28;20231;-82
2023/07/19 05:51:30;;;;;;;4.30;3.90;;;25.60;54.50;;;;;;4987114;28;20307;-82
2023/07/19 05:53:57;;;;;;;4.13;3.70;;;25.70;54.10;;;;;;5003619;28;20204;-83
2023/07/19 05:56:24;;;;;;;4.10;3.70;;;25.80;53.80;;;;;;5014445;23;20578;-78
2023/07/19 05:58:54;;;;;;;6.63;3.70;;;25.90;53.60;;;;;;4998128;28;20197;-77
2023/07/19 06:01:21;;;;;;;3.65;3.35;;;26.00;53.50;;;;;;5016284;28;20216;-77
2023/07/19 06:03:48;;;;;;;4.20;3.45;;;26.10;53.30;;;;;;4998381;28;20223;-77
2023/07/19 06:06:15;;;;;;;4.18;3.63;;;26.10;53.00;;;;;;4998080;28;20206;-77
2023/07/19 06:08:42;;;;;;;4.15;3.75;;;26.20;52.90;;;;;;4997795;28;20216;-76
2023/07/19 06:11:09;;;;;;;4.85;3.65;;;26.30;52.70;;;;;;4997966;28;20227;-77
2023/07/19 06:13:35;;;;;;;3.70;3.40;;;26.40;52.50;;;;;;4997864;28;20232;-77
2023/07/19 06:16:04;;;;;;;4.05;3.65;;;26.40;52.30;;;;;;4998071;28;20212;-78
2023/07/19 06:18:31;;;;;;;3.92;3.50;;;26.60;52.10;;;;;;4997104;28;20197;-78
2023/07/19 06:20:59;;;;;;;4.00;3.60;;;26.60;51.90;;;;;;4997753;28;20320;-78
2023/07/19 06:23:25;;;;;;;3.67;3.38;;;26.70;51.70;;;;;;4997795;28;20683;-77
2023/07/19 06:25:53;;;;;;;4.20;3.47;;;26.80;51.50;;;;;;4997816;28;20291;-77
2023/07/19 06:28:20;;;;;;;4.28;3.30;;;26.90;51.30;;;;;;4998068;28;20278;-77
2023/07/19 06:30:47;;;;;;;4.05;3.30;;;27.00;51.00;;;;;;4997603;28;20706;-77
2023/07/19 06:33:15;;;;;;;3.95;3.30;;;27.00;51.00;;;;;;4998332;28;20211;-77
2023/07/19 06:35:42;;;;;;;4.43;3.80;;;27.10;50.90;;;;;;4997648;28;20659;-77
2023/07/19 06:38:10;;;;;;;3.63;3.33;;;27.20;50.70;;;;;;4981363;28;20200;-77
2023/07/19 06:40:37;;;;;;;4.05;3.65;;;27.20;50.50;;;;;;4997421;28;20259;-77
2023/07/19 06:43:06;;;;;;;4.10;3.70;;;27.30;50.30;;;;;;4997432;28;20196;-77
2023/07/19 06:45:33;;;;;;;4.55;3.55;;;27.40;50.20;;;;;;4998285;28;20196;-77
2023/07/19 06:48:00;;;;;;;3.67;3.38;;;27.50;50.10;;;;;;4997074;28;20203;-77
2023/07/19 06:50:29;;;;;;;4.53;3.42;;;27.50;50.00;;;;;;4997371;28;20290;-77
2023/07/19 06:52:56;;;;;;;3.63;3.33;;;27.60;49.90;;;;;;4996902;28;20200;-77
2023/07/19 06:55:23;;;;;;;3.75;3.38;;;27.60;49.80;;;;;;4997165;28;20208;-77
2023/07/19 06:57:51;;;;;;;5.25;3.80;;;27.70;49.60;;;;;;4997849;28;20200;-77
2023/07/19 07:00:18;;;;;;;3.50;3.20;;;27.70;49.50;;;;;;4997124;28;20314;-77
2023/07/19 07:02:46;;;;;;;4.05;3.65;;;27.70;49.30;;;;;;4997652;28;20203;-77
2023/07/19 07:05:13;;;;;;;4.95;3.20;;;27.80;49.20;;;;;;4997142;28;20313;-77
2023/07/19 07:07:42;;;;;;;4.40;3.58;;;27.80;49.00;;;;;;4997036;28;20199;-77
2023/07/19 07:10:09;;;;;;;4.43;3.40;;;27.90;48.80;;;;;;4996766;28;20667;-77
2023/07/19 07:12:37;;;;;;;3.72;3.40;;;28.00;48.80;;;;;;4997126;28;20551;-77
2023/07/19 07:15:06;;;;;;;3.95;3.63;;;28.10;48.60;;;;;;4997796;28;20553;-77
2023/07/19 07:17:33;;;;;;;3.90;3.50;;;28.10;48.40;;;;;;4980940;28;20192;-77
2023/07/19 07:20:00;;;;;;;4.05;3.38;;;28.10;48.20;;;;;;4996638;28;20204;-77
2023/07/19 07:22:27;;;;;;;4.10;3.58;;;28.20;47.90;;;;;;4996549;28;20254;-77
2023/07/19 07:24:56;;;;;;;3.88;3.55;;;28.20;47.70;;;;;;4996799;28;20207;-77
2023/07/19 07:27:23;;;;;;;4.65;3.75;;;28.30;47.60;;;;;;4997085;28;20207;-77
2023/07/19 07:29:50;;;;;;;3.83;3.17;;;28.30;47.50;;;;;;4980508;28;20224;-77
2023/07/19 07:32:17;;;;;;;3.67;3.33;;;28.40;47.30;;;;;;4996846;28;20231;-77
2023/07/19 07:34:44;;;;;;;3.65;3.35;;;28.50;47.40;;;;;;4996565;28;20192;-77
2023/07/19 07:37:11;;;;;;;3.67;3.38;;;28.50;47.20;;;;;;4997366;28;20278;-77
2023/07/19 07:39:39;;;;;;;3.63;3.10;;;28.60;47.10;;;;;;4996667;28;20611;-77
2023/07/19 07:42:09;;;;;;;3.50;3.13;;;28.60;47.60;;;;;;4996427;28;20208;-77
2023/07/19 07:44:36;;;;;;;3.70;3.40;;;28.60;46.90;;;;;;4996362;28;20192;-77
2023/07/19 07:47:04;;;;;;;3.60;3.17;;;28.70;46.70;;;;;;4996306;28;20204;-76
2023/07/19 07:49:31;;;;;;;3.58;3.28;;;28.70;46.60;;;;;;4995984;28;20220;-77
2023/07/19 07:51:59;;;;;;;3.67;3.17;;;28.80;46.40;;;;;;4996386;28;20226;-77
2023/07/19 07:54:25;;;;;;;3.50;3.20;;;28.80;46.40;;;;;;5013706;28;20230;-77
2023/07/19 07:56:53;;;;;;;3.47;3.17;;;28.80;46.20;;;;;;4996188;28;20215;-77
2023/07/19 07:59:21;;;;;;;3.33;3.03;;;28.80;46.10;;;;;;4980474;28;20558;-77
2023/07/19 08:01:48;;;;;;;3.47;3.17;;;28.90;46.10;;;;;;4996266;28;20588;-77
2023/07/19 08:04:15;;;;;;;3.53;3.22;;;28.90;45.90;;;;;;4996224;28;20577;-77
2023/07/19 08:06:43;;;;;;;3.40;3.10;;;28.90;45.80;;;;;;4980062;28;20709;-77
2023/07/19 08:09:10;;;;;;;3.47;3.17;;;29.00;45.70;;;;;;4996205;28;20691;-77
2023/07/19 08:11:37;;;;;;;3.20;2.88;;;29.00;45.70;;;;;;4996113;28;20717;-77
2023/07/19 08:14:04;;;;;;;3.47;3.15;;;29.00;45.60;;;;;;4996186;28;20200;-77
2023/07/19 08:16:33;;;;;;;3.28;2.97;;;29.00;45.60;;;;;;4996085;28;20188;-76
2023/07/19 08:19:00;;;;;;;3.33;3.00;;;29.00;45.40;;;;;;4996346;28;20192;-76
2023/07/19 08:21:27;;;;;;;3.58;3.28;;;29.00;45.40;;;;;;4997122;28;20223;-76
2023/07/19 08:23:55;;;;;;;3.50;3.20;;;29.10;45.40;;;;;;5013411;28;20279;-76
2023/07/19 08:26:23;;;;;;;3.55;3.25;;;29.10;45.40;;;;;;5014182;28;20242;-77
2023/07/19 08:28:50;;;;;;;3.38;3.08;;;29.10;45.30;;;;;;4996208;28;20565;-77
2023/07/19 08:31:18;;;;;;;2.80;2.60;;;29.20;45.20;;;;;;4996254;28;20306;-77
2023/07/19 08:33:46;;;;;;;3.60;3.30;;;29.20;45.20;;;;;;4995976;28;20200;-77
2023/07/19 08:36:13;;;;;;;3.30;3.00;;;29.20;44.90;;;;;;4996142;28;20207;-77
2023/07/19 08:38:41;;;;;;;3.55;3.25;;;29.30;44.90;;;;;;4996105;28;20205;-77
2023/07/19 08:41:09;;;;;;;3.45;3.15;;;29.30;44.80;;;;;;4996400;28;20217;-77
2023/07/19 08:43:36;;;;;;;2.97;2.78;;;29.30;44.70;;;;;;5000006;28;20630;-76
2023/07/19 08:46:03;;;;;;;3.38;3.08;;;29.30;44.50;;;;;;4999386;28;20227;-76
2023/07/19 08:48:31;;;;;;;3.20;2.90;;;29.40;44.40;;;;;;4999794;28;20658;-76
2023/07/19 08:51:01;;;;;;;3.20;3.00;;;29.40;44.50;;;;;;4999482;28;20589;-77
2023/07/19 08:53:28;;;;;;;2.70;2.50;;;29.40;44.40;;;;;;5000017;28;20204;-77
2023/07/19 08:55:56;;;;;;;3.22;2.92;;;29.40;44.50;;;;;;4999997;28;20208;-77
2023/07/19 08:58:23;;;;;;;3.22;2.92;;;29.40;44.40;;;;;;4999624;28;20212;-77
2023/07/19 09:00:50;;;;;;;3.28;2.97;;;29.40;44.30;;;;;;4999405;28;20266;-78
2023/07/19 09:03:17;;;;;;;3.00;2.80;;;29.50;44.20;;;;;;5000511;28;20207;-78
2023/07/19 09:05:45;;;;;;;3.10;2.80;;;29.50;44.10;;;;;;4999926;28;20208;-78
2023/07/19 09:08:13;;;;;;;3.08;2.88;;;29.50;44.10;;;;;;4999366;28;20228;-78
2023/07/19 09:10:43;;;;;;;3.50;3.20;;;29.50;44.10;;;;;;4998894;28;20323;-78
2023/07/19 09:13:10;;;;;;;3.20;2.90;;;29.50;44.00;;;;;;5000039;28;20203;-78
2023/07/19 09:15:37;;;;;;;3.40;2.85;;;29.60;43.90;;;;;;4999251;28;20283;-78
2023/07/19 09:18:05;;;;;;;3.13;2.63;;;29.60;44.40;;;;;;4998943;28;20204;-77
2023/07/19 09:20:34;;;;;;;4.20;2.95;;;29.60;43.80;;;;;;4998734;28;20214;-77
2023/07/19 09:23:04;;;;;;;2.90;2.70;;;29.60;43.80;;;;;;4998588;28;20200;-77
2023/07/19 09:25:33;;;;;;;2.83;2.63;;;29.60;43.80;;;;;;4999225;28;20192;-77
2023/07/19 09:28:05;;;;;;;2.83;2.63;;;29.60;43.80;;;;;;4999332;28;20196;-77
2023/07/19 09:30:32;;;;;;;2.72;2.53;;;29.60;43.70;;;;;;4998863;28;20223;-77
2023/07/19 09:33:00;;;;;;;3.05;2.80;;;29.60;43.60;;;;;;4998978;28;20231;-77
2023/07/19 09:35:27;;;;;;;2.83;2.63;;;29.60;43.60;;;;;;4998781;28;20204;-77
2023/07/19 09:37:54;;;;;;;3.10;2.88;;;29.70;43.60;;;;;;4998867;28;20200;-77
2023/07/19 09:40:22;;;;;;;2.95;2.75;;;29.70;43.60;;;;;;4998662;28;20674;-77
2023/07/19 09:42:51;;;;;;;3.00;2.70;;;29.60;43.60;;;;;;4998706;28;20804;-77
2023/07/19 09:45:19;;;;;;;2.70;2.50;;;29.60;43.60;;;;;;4998847;28;20224;-77
2023/07/19 09:47:46;;;;;;;3.15;2.85;;;29.60;43.50;;;;;;5001090;28;20192;-77
2023/07/19 09:50:14;;;;;;;2.90;2.58;;;29.60;43.50;;;;;;5002054;28;20686;-77
2023/07/19 09:52:41;;;;;;;3.13;2.85;;;29.60;43.50;;;;;;4998309;28;20577;-77
2023/07/19 09:55:09;;;;;;;2.97;2.78;;;29.70;43.50;;;;;;4998675;28;20231;-77
2023/07/19 09:57:38;;;;;;;3.00;2.80;;;29.60;43.50;;;;;;4998585;28;20565;-77
2023/07/19 10:00:09;;;;;;;2.90;2.70;;;29.70;43.60;;;;;;4998278;28;20215;-78
2023/07/19 10:02:36;;;;;;;2.70;2.50;;;29.60;43.50;;;;;;4999421;28;20184;-78
2023/07/19 10:05:08;;;;;;;2.70;2.50;;;29.60;43.50;;;;;;4998299;28;20637;-78
2023/07/19 10:07:35;;;;;;;2.80;2.60;;;29.60;43.60;;;;;;4998173;28;20195;-78
2023/07/19 10:10:03;;;;;;;2.65;2.45;;;29.60;43.60;;;;;;4997954;28;20650;-78
2023/07/19 10:12:31;;;;;;;3.35;3.05;;;29.60;43.50;;;;;;4998025;28;20200;-78
2023/07/19 10:15:01;;;;;;;3.05;2.85;;;29.50;44.10;;;;;;4997750;28;20211;-78
2023/07/19 10:17:30;;;;;;;2.92;2.72;;;29.50;43.70;;;;;;4997965;28;20200;-78
2023/07/19 10:20:00;;;;;;;2.75;2.50;;;29.40;43.70;;;;;;4998087;28;20624;-78
2023/07/19 10:22:49;;;;;;;2.80;2.60;;;29.30;44.00;;;;;;5013932;28;20569;-78
2023/07/19 10:25:16;;;;;;;2.92;2.72;;;29.30;44.10;;;;;;4997957;28;20196;-78
2023/07/19 10:27:43;;;;;;;3.25;2.95;;;29.30;44.30;;;;;;4998228;28;20558;-78
2023/07/19 10:30:11;;;;;;;2.60;2.40;;;29.20;44.30;;;;;;4998199;28;20564;-78
2023/07/19 10:32:39;;;;;;;2.67;2.47;;;29.20;44.40;;;;;;5015204;28;20659;-78
2023/07/19 10:35:07;;;;;;;2.80;2.60;;;29.20;44.30;;;;;;4981753;28;20250;-78
2023/07/19 10:37:33;;;;;;;2.92;2.72;;;29.20;44.40;;;;;;4997663;28;20204;-78
2023/07/19 10:40:00;;;;;;;2.92;2.63;;;29.20;44.50;;;;;;4997368;28;20196;-78
2023/07/19 10:42:28;;;;;;;2.50;2.30;;;29.10;44.40;;;;;;4997347;28;20286;-78
2023/07/19 10:44:57;;;;;;;2.40;2.20;;;29.10;44.50;;;;;;4981233;28;20287;-78
2023/07/19 10:47:24;;;;;;;2.83;2.50;;;29.10;44.60;;;;;;5015158;28;20192;-78
2023/07/19 10:49:53;;;;;;;3.03;2.72;;;29.00;44.60;;;;;;4997476;28;20219;-78
2023/07/19 10:52:21;;;;;;;2.70;2.50;;;29.00;44.80;;;;;;4997712;28;20262;-78
2023/07/19 10:54:55;;;;;;;3.08;2.65;;;28.90;44.90;;;;;;4997589;28;20227;-78
2023/07/19 10:57:22;;;;;;;3.63;3.20;;;28.90;45.00;;;;;;4997368;28;20208;-78
2023/07/19 10:59:51;;;;;;;2.90;2.70;;;28.90;45.10;;;;;;5000345;28;20706;-78
2023/07/19 11:02:18;;;;;;;2.72;2.53;;;28.80;45.20;;;;;;5001796;28;20307;-78
2023/07/19 11:04:46;;;;;;;2.58;2.38;;;28.80;45.20;;;;;;5009821;28;20206;-78
2023/07/19 11:07:15;;;;;;;2.70;2.50;;;28.80;45.30;;;;;;4997915;28;20199;-78
2023/07/19 11:09:42;;;;;;;2.50;2.30;;;28.70;45.30;;;;;;4997824;28;20207;-78
2023/07/19 11:12:11;;;;;;;2.70;2.50;;;28.70;45.40;;;;;;4998072;28;20617;-78
2023/07/19 11:14:42;;;;;;;2.47;2.28;;;28.60;45.50;;;;;;4997669;28;20618;-78
2023/07/19 11:17:10;;;;;;;2.78;2.58;;;28.60;45.60;;;;;;4997461;28;20643;-78
2023/07/19 11:19:38;;;;;;;2.80;2.60;;;28.60;45.60;;;;;;4998022;28;20196;-78
2023/07/19 11:22:05;;;;;;;2.60;2.40;;;28.60;45.80;;;;;;5014775;28;20219;-78
2023/07/19 11:24:38;;;;;;;2.45;2.25;;;28.50;45.90;;;;;;4997261;28;20548;-78
2023/07/19 11:27:06;;;;;;;2.58;2.38;;;28.50;46.60;;;;;;4997207;28;20737;-78
2023/07/19 11:29:33;;;;;;;2.65;2.45;;;28.40;46.10;;;;;;4997321;28;20224;-78
2023/07/19 11:32:16;;;;;;;2.80;2.60;;;28.40;46.20;;;;;;4997149;28;20236;-78
2023/07/19 11:34:48;;;;;;;2.80;2.60;;;28.30;46.20;;;;;;4997860;28;20196;-78
2023/07/19 11:37:19;;;;;;;2.70;2.50;;;28.30;46.40;;;;;;4996863;28;20250;-78
2023/07/19 11:39:49;;;;;;;2.80;2.60;;;28.30;46.40;;;;;;4996612;28;20207;-78
2023/07/19 11:42:17;;;;;;;2.60;2.40;;;28.20;47.00;;;;;;5014187;28;20239;-78
2023/07/19 11:44:44;;;;;;;3.15;2.42;;;28.20;46.60;;;;;;4994406;28;20237;-78
2023/07/19 11:47:12;;;;;;;2.40;2.20;;;28.20;46.60;;;;;;4996884;28;20199;-78
2023/07/19 11:49:39;;;;;;;2.10;2.00;;;28.20;46.60;;;;;;4996636;28;20231;-78
2023/07/19 11:52:07;;;;;;;2.70;2.50;;;28.20;46.60;;;;;;4997226;28;20231;-78
2023/07/19 11:54:34;;;;;;;2.40;2.20;;;28.20;46.60;;;;;;4980237;28;20296;-78
2023/07/19 11:57:02;;;;;;;2.50;2.30;;;28.20;46.70;;;;;;5040763;23;20233;-84
2023/07/19 11:59:31;;;;;;;2.55;2.35;;;28.20;46.60;;;;;;4978072;28;20677;-84
2023/07/19 12:01:59;;;;;;;2.70;2.50;;;28.20;46.60;;;;;;4976193;28;20221;-84
2023/07/19 12:04:28;;;;;;;2.65;2.45;;;28.20;46.60;;;;;;4992185;28;20233;-84
2023/07/19 12:06:55;;;;;;;2.40;2.20;;;28.20;46.60;;;;;;4975924;28;20206;-84
2023/07/19 12:09:23;;;;;;;2.60;2.40;;;28.20;46.60;;;;;;4971470;28;20245;-84
2023/07/19 12:11:51;;;;;;;2.40;2.20;;;28.10;46.60;;;;;;4990874;28;20308;-84
2023/07/19 12:14:20;;;;;;;2.72;2.45;;;28.10;46.70;;;;;;4989916;28;20581;-84
2023/07/19 12:16:47;;;;;;;2.10;2.00;;;28.10;46.80;;;;;;4975314;28;20571;-84
2023/07/19 12:19:15;;;;;;;2.50;2.30;;;28.10;47.10;;;;;;4978900;28;20279;-84
2023/07/19 12:21:43;;;;;;;2.60;2.40;;;28.10;47.00;;;;;;4978666;28;20727;-84
2023/07/19 12:24:13;;;;;;;3.63;2.50;;;28.20;47.00;;;;;;4963468;28;20273;-84
2023/07/19 12:26:40;;;;;;;2.38;2.20;;;28.20;46.90;;;;;;4979401;28;20661;-84
2023/07/19 12:29:07;;;;;;;3.38;2.63;;;28.20;46.60;;;;;;4978789;28;20215;-84
2023/07/19 12:31:35;;;;;;;3.05;2.70;;;28.20;46.50;;;;;;4999376;28;20224;-84
2023/07/19 12:34:02;;;;;;;2.40;2.20;;;28.20;46.30;;;;;;5001249;28;20208;-84
2023/07/19 12:36:30;;;;;;;2.47;2.28;;;28.20;46.30;;;;;;4988645;28;20205;-83
2023/07/19 12:38:57;;;;;;;3.63;2.42;;;28.20;46.20;;;;;;4962660;28;20639;-83
2023/07/19 12:41:24;;;;;;;2.60;2.40;;;28.20;45.70;;;;;;4978868;28;20221;-84
2023/07/19 12:43:51;;;;;;;3.50;2.35;;;28.20;45.70;;;;;;4978484;28;20205;-84
2023/07/19 12:46:19;;;;;;;3.08;2.25;;;28.20;45.60;;;;;;4979159;28;20276;-84
2023/07/19 12:48:48;;;;;;;3.78;2.40;;;28.20;45.10;;;;;;4979214;28;20201;-84
2023/07/19 12:51:15;;;;;;;3.30;2.40;;;28.20;44.90;;;;;;4994749;28;20264;-83